sensor_id;sensor_type;location;lat;lon;timestamp;temperature;humidity
59505;DHT22;45321;53.200;5.814;2023-08-30T00:00:44;16.50;77.70
59505;DHT22;45321;53.200;5.814;2023-08-30T00:03:11;16.50;76.70
59505;DHT22;45321;53.200;5.814;2023-08-30T00:05:41;16.50;77.10
59505;DHT22;45321;53.200;5.814;2023-08-30T00:08:08;16.50;77.60
59505;DHT22;45321;53.200;5.814;2023-08-30T00:10:34;16.50;77.20
59505;DHT22;45321;53.200;5.814;2023-08-30T00:13:00;16.50;77.30
59505;DHT22;45321;53.200;5.814;2023-08-30T00:15:26;16.40;77.40
59505;DHT22;45321;53.200;5.814;2023-08-30T00:17:51;16.40;77.50
59505;DHT22;45321;53.200;5.814;2023-08-30T00:20:20;16.40;77.30
59505;DHT22;45321;53.200;5.814;2023-08-30T00:22:47;16.40;77.30
59505;DHT22;45321;53.200;5.814;2023-08-30T00:25:14;16.40;77.00
59505;DHT22;45321;53.200;5.814;2023-08-30T00:27:41;16.30;77.60
59505;DHT22;45321;53.200;5.814;2023-08-30T00:30:07;16.30;77.50
59505;DHT22;45321;53.200;5.814;2023-08-30T00:32:35;16.30;77.40
59505;DHT22;45321;53.200;5.814;2023-08-30T00:35:01;16.30;77.60
59505;DHT22;45321;53.200;5.814;2023-08-30T00:37:26;16.20;77.80
59505;DHT22;45321;53.200;5.814;2023-08-30T00:39:52;16.20;77.90
59505;DHT22;45321;53.200;5.814;2023-08-30T00:42:18;16.20;78.10
59505;DHT22;45321;53.200;5.814;2023-08-30T00:44:44;16.20;78.10
59505;DHT22;45321;53.200;5.814;2023-08-30T00:47:09;16.20;78.20
59505;DHT22;45321;53.200;5.814;2023-08-30T00:49:35;16.10;78.00
59505;DHT22;45321;53.200;5.814;2023-08-30T00:52:05;16.00;78.30
59505;DHT22;45321;53.200;5.814;2023-08-30T00:54:31;16.00;78.40
59505;DHT22;45321;53.200;5.814;2023-08-30T00:56:57;16.00;78.30
59505;DHT22;45321;53.200;5.814;2023-08-30T00:59:26;16.00;78.40
59505;DHT22;45321;53.200;5.814;2023-08-30T01:01:52;15.90;78.30
59505;DHT22;45321;53.200;5.814;2023-08-30T01:04:19;15.90;78.30
59505;DHT22;45321;53.200;5.814;2023-08-30T01:06:45;15.90;78.50
59505;DHT22;45321;53.200;5.814;2023-08-30T01:09:11;15.90;78.80
59505;DHT22;45321;53.200;5.814;2023-08-30T01:11:50;15.90;78.80
59505;DHT22;45321;53.200;5.814;2023-08-30T01:14:20;15.80;78.80
59505;DHT22;45321;53.200;5.814;2023-08-30T01:16:47;15.80;78.90
59505;DHT22;45321;53.200;5.814;2023-08-30T01:25:00;15.80;79.20
59505;DHT22;45321;53.200;5.814;2023-08-30T01:27:31;15.80;79.30
59505;DHT22;45321;53.200;5.814;2023-08-30T01:30:01;15.80;79.40
59505;DHT22;45321;53.200;5.814;2023-08-30T01:32:28;15.80;79.80
59505;DHT22;45321;53.200;5.814;2023-08-30T01:34:56;15.80;79.60
59505;DHT22;45321;53.200;5.814;2023-08-30T01:37:22;15.80;79.60
59505;DHT22;45321;53.200;5.814;2023-08-30T01:39:49;15.70;79.60
59505;DHT22;45321;53.200;5.814;2023-08-30T01:42:15;15.70;79.90
59505;DHT22;45321;53.200;5.814;2023-08-30T01:44:48;15.70;80.10
59505;DHT22;45321;53.200;5.814;2023-08-30T01:47:13;15.70;79.90
59505;DHT22;45321;53.200;5.814;2023-08-30T01:49:42;15.70;80.10
59505;DHT22;45321;53.200;5.814;2023-08-30T01:52:10;15.70;79.90
59505;DHT22;45321;53.200;5.814;2023-08-30T01:54:37;15.60;79.90
59505;DHT22;45321;53.200;5.814;2023-08-30T01:57:04;15.60;80.30
59505;DHT22;45321;53.200;5.814;2023-08-30T01:59:31;15.60;80.40
59505;DHT22;45321;53.200;5.814;2023-08-30T02:01:56;15.60;80.60
59505;DHT22;45321;53.200;5.814;2023-08-30T02:04:22;15.60;80.70
59505;DHT22;45321;53.200;5.814;2023-08-30T02:06:50;15.50;80.60
59505;DHT22;45321;53.200;5.814;2023-08-30T02:09:26;15.50;80.60
59505;DHT22;45321;53.200;5.814;2023-08-30T02:11:54;15.50;80.70
59505;DHT22;45321;53.200;5.814;2023-08-30T02:14:21;15.40;80.90
59505;DHT22;45321;53.200;5.814;2023-08-30T02:16:48;15.40;81.00
59505;DHT22;45321;53.200;5.814;2023-08-30T02:19:14;15.40;80.70
59505;DHT22;45321;53.200;5.814;2023-08-30T02:21:46;15.40;81.00
59505;DHT22;45321;53.200;5.814;2023-08-30T02:24:13;15.30;81.20
59505;DHT22;45321;53.200;5.814;2023-08-30T02:26:38;15.30;81.40
59505;DHT22;45321;53.200;5.814;2023-08-30T02:29:04;15.30;81.30
59505;DHT22;45321;53.200;5.814;2023-08-30T02:31:30;15.30;81.50
59505;DHT22;45321;53.200;5.814;2023-08-30T02:33:56;15.30;81.50
59505;DHT22;45321;53.200;5.814;2023-08-30T02:36:21;15.30;81.70
59505;DHT22;45321;53.200;5.814;2023-08-30T02:38:47;15.30;81.60
59505;DHT22;45321;53.200;5.814;2023-08-30T02:41:13;15.30;81.50
59505;DHT22;45321;53.200;5.814;2023-08-30T02:43:38;15.30;81.40
59505;DHT22;45321;53.200;5.814;2023-08-30T02:46:04;15.30;81.40
59505;DHT22;45321;53.200;5.814;2023-08-30T02:48:34;15.30;81.30
59505;DHT22;45321;53.200;5.814;2023-08-30T02:50:59;15.30;81.30
59505;DHT22;45321;53.200;5.814;2023-08-30T02:53:25;15.30;81.00
59505;DHT22;45321;53.200;5.814;2023-08-30T02:55:51;15.30;81.30
59505;DHT22;45321;53.200;5.814;2023-08-30T02:58:17;15.30;81.00
59505;DHT22;45321;53.200;5.814;2023-08-30T03:00:42;15.30;80.90
59505;DHT22;45321;53.200;5.814;2023-08-30T03:03:08;15.30;81.30
59505;DHT22;45321;53.200;5.814;2023-08-30T03:05:34;15.30;81.30
59505;DHT22;45321;53.200;5.814;2023-08-30T03:07:59;15.20;81.30
59505;DHT22;45321;53.200;5.814;2023-08-30T03:10:25;15.30;81.30
59505;DHT22;45321;53.200;5.814;2023-08-30T03:12:51;15.30;81.60
59505;DHT22;45321;53.200;5.814;2023-08-30T03:15:17;15.30;81.70
59505;DHT22;45321;53.200;5.814;2023-08-30T03:17:42;15.30;81.50
59505;DHT22;45321;53.200;5.814;2023-08-30T03:20:08;15.30;81.40
59505;DHT22;45321;53.200;5.814;2023-08-30T03:22:34;15.30;81.50
59505;DHT22;45321;53.200;5.814;2023-08-30T03:25:00;15.30;81.80
59505;DHT22;45321;53.200;5.814;2023-08-30T03:27:29;15.30;81.60
59505;DHT22;45321;53.200;5.814;2023-08-30T03:29:55;15.30;81.80
59505;DHT22;45321;53.200;5.814;2023-08-30T03:32:22;15.40;81.60
59505;DHT22;45321;53.200;5.814;2023-08-30T03:34:48;15.40;81.80
59505;DHT22;45321;53.200;5.814;2023-08-30T03:37:14;15.40;81.60
59505;DHT22;45321;53.200;5.814;2023-08-30T03:39:40;15.50;81.90
59505;DHT22;45321;53.200;5.814;2023-08-30T03:42:06;15.40;82.10
59505;DHT22;45321;53.200;5.814;2023-08-30T03:44:32;15.40;81.90
59505;DHT22;45321;53.200;5.814;2023-08-30T03:46:58;15.40;82.10
59505;DHT22;45321;53.200;5.814;2023-08-30T03:49:24;15.40;82.40
59505;DHT22;45321;53.200;5.814;2023-08-30T03:51:49;15.40;82.50
59505;DHT22;45321;53.200;5.814;2023-08-30T03:54:15;15.40;82.40
59505;DHT22;45321;53.200;5.814;2023-08-30T03:56:44;15.40;82.50
59505;DHT22;45321;53.200;5.814;2023-08-30T03:59:13;15.40;82.90
59505;DHT22;45321;53.200;5.814;2023-08-30T04:01:39;15.40;83.30
59505;DHT22;45321;53.200;5.814;2023-08-30T04:04:04;15.30;83.40
59505;DHT22;45321;53.200;5.814;2023-08-30T04:06:31;15.30;83.60
59505;DHT22;45321;53.200;5.814;2023-08-30T04:08:56;15.30;83.90
59505;DHT22;45321;53.200;5.814;2023-08-30T04:11:23;15.30;83.50
59505;DHT22;45321;53.200;5.814;2023-08-30T04:13:48;15.30;83.80
59505;DHT22;45321;53.200;5.814;2023-08-30T04:16:14;15.30;83.70
59505;DHT22;45321;53.200;5.814;2023-08-30T04:18:40;15.30;83.90
59505;DHT22;45321;53.200;5.814;2023-08-30T04:21:05;15.30;83.90
59505;DHT22;45321;53.200;5.814;2023-08-30T04:23:34;15.30;83.90
59505;DHT22;45321;53.200;5.814;2023-08-30T04:26:00;15.30;83.80
59505;DHT22;45321;53.200;5.814;2023-08-30T04:28:25;15.30;84.20
59505;DHT22;45321;53.200;5.814;2023-08-30T04:30:55;15.30;83.90
59505;DHT22;45321;53.200;5.814;2023-08-30T04:33:22;15.30;84.20
59505;DHT22;45321;53.200;5.814;2023-08-30T04:35:52;15.30;84.10
59505;DHT22;45321;53.200;5.814;2023-08-30T04:38:18;15.30;84.30
59505;DHT22;45321;53.200;5.814;2023-08-30T04:40:43;15.30;84.30
59505;DHT22;45321;53.200;5.814;2023-08-30T04:43:09;15.30;84.30
59505;DHT22;45321;53.200;5.814;2023-08-30T04:45:35;15.30;84.60
59505;DHT22;45321;53.200;5.814;2023-08-30T04:48:01;15.30;84.30
59505;DHT22;45321;53.200;5.814;2023-08-30T04:50:27;15.30;84.00
59505;DHT22;45321;53.200;5.814;2023-08-30T04:52:53;15.30;84.10
59505;DHT22;45321;53.200;5.814;2023-08-30T04:55:18;15.30;84.00
59505;DHT22;45321;53.200;5.814;2023-08-30T04:57:44;15.30;83.60
59505;DHT22;45321;53.200;5.814;2023-08-30T05:00:12;15.40;83.70
59505;DHT22;45321;53.200;5.814;2023-08-30T05:02:38;15.30;83.60
59505;DHT22;45321;53.200;5.814;2023-08-30T05:05:04;15.30;83.80
59505;DHT22;45321;53.200;5.814;2023-08-30T05:07:29;15.30;83.70
59505;DHT22;45321;53.200;5.814;2023-08-30T05:09:55;15.30;83.60
59505;DHT22;45321;53.200;5.814;2023-08-30T05:12:21;15.30;83.50
59505;DHT22;45321;53.200;5.814;2023-08-30T05:14:47;15.30;83.50
59505;DHT22;45321;53.200;5.814;2023-08-30T05:17:13;15.30;83.60
59505;DHT22;45321;53.200;5.814;2023-08-30T05:19:38;15.30;83.40
59505;DHT22;45321;53.200;5.814;2023-08-30T05:22:04;15.30;83.50
59505;DHT22;45321;53.200;5.814;2023-08-30T05:24:30;15.30;83.80
59505;DHT22;45321;53.200;5.814;2023-08-30T05:26:55;15.30;83.80
59505;DHT22;45321;53.200;5.814;2023-08-30T05:29:21;15.30;83.70
59505;DHT22;45321;53.200;5.814;2023-08-30T05:31:47;15.30;83.80
59505;DHT22;45321;53.200;5.814;2023-08-30T05:34:13;15.30;84.00
59505;DHT22;45321;53.200;5.814;2023-08-30T05:36:44;15.30;83.80
59505;DHT22;45321;53.200;5.814;2023-08-30T05:39:10;15.40;83.80
59505;DHT22;45321;53.200;5.814;2023-08-30T05:41:35;15.30;83.80
59505;DHT22;45321;53.200;5.814;2023-08-30T05:44:01;15.30;84.10
59505;DHT22;45321;53.200;5.814;2023-08-30T05:46:28;15.30;83.90
59505;DHT22;45321;53.200;5.814;2023-08-30T05:48:53;15.30;84.00
59505;DHT22;45321;53.200;5.814;2023-08-30T05:51:20;15.30;83.90
59505;DHT22;45321;53.200;5.814;2023-08-30T05:53:45;15.30;83.80
59505;DHT22;45321;53.200;5.814;2023-08-30T05:56:11;15.30;83.70
59505;DHT22;45321;53.200;5.814;2023-08-30T05:58:37;15.30;83.70
59505;DHT22;45321;53.200;5.814;2023-08-30T06:01:04;15.30;83.40
59505;DHT22;45321;53.200;5.814;2023-08-30T06:03:31;15.30;83.40
59505;DHT22;45321;53.200;5.814;2023-08-30T06:05:57;15.30;83.50
59505;DHT22;45321;53.200;5.814;2023-08-30T06:08:23;15.30;83.30
59505;DHT22;45321;53.200;5.814;2023-08-30T06:10:49;15.30;83.30
59505;DHT22;45321;53.200;5.814;2023-08-30T06:13:17;15.30;83.20
59505;DHT22;45321;53.200;5.814;2023-08-30T06:15:43;15.30;83.10
59505;DHT22;45321;53.200;5.814;2023-08-30T06:18:10;15.30;83.30
59505;DHT22;45321;53.200;5.814;2023-08-30T06:20:40;15.30;83.30
59505;DHT22;45321;53.200;5.814;2023-08-30T06:23:06;15.30;83.30
59505;DHT22;45321;53.200;5.814;2023-08-30T06:25:32;15.30;83.30
59505;DHT22;45321;53.200;5.814;2023-08-30T06:27:59;15.40;83.40
59505;DHT22;45321;53.200;5.814;2023-08-30T06:30:25;15.30;83.10
59505;DHT22;45321;53.200;5.814;2023-08-30T06:32:51;15.30;83.00
59505;DHT22;45321;53.200;5.814;2023-08-30T06:35:17;15.40;83.30
59505;DHT22;45321;53.200;5.814;2023-08-30T06:37:43;15.40;83.00
59505;DHT22;45321;53.200;5.814;2023-08-30T06:40:09;15.50;83.20
59505;DHT22;45321;53.200;5.814;2023-08-30T06:42:35;15.50;83.00
59505;DHT22;45321;53.200;5.814;2023-08-30T06:45:01;15.50;82.60
59505;DHT22;45321;53.200;5.814;2023-08-30T06:47:28;15.60;82.90
59505;DHT22;45321;53.200;5.814;2023-08-30T06:49:53;15.70;83.10
59505;DHT22;45321;53.200;5.814;2023-08-30T06:52:19;15.80;82.30
59505;DHT22;45321;53.200;5.814;2023-08-30T06:54:45;15.90;81.50
59505;DHT22;45321;53.200;5.814;2023-08-30T06:57:10;16.00;81.70
59505;DHT22;45321;53.200;5.814;2023-08-30T06:59:36;16.00;82.10
59505;DHT22;45321;53.200;5.814;2023-08-30T07:02:02;16.10;82.30
59505;DHT22;45321;53.200;5.814;2023-08-30T07:04:28;16.20;82.00
59505;DHT22;45321;53.200;5.814;2023-08-30T07:06:54;16.40;81.80
59505;DHT22;45321;53.200;5.814;2023-08-30T07:09:20;16.50;81.00
59505;DHT22;45321;53.200;5.814;2023-08-30T07:11:47;16.50;81.00
59505;DHT22;45321;53.200;5.814;2023-08-30T07:14:13;16.50;81.30
59505;DHT22;45321;53.200;5.814;2023-08-30T07:16:40;16.50;80.20
59505;DHT22;45321;53.200;5.814;2023-08-30T07:19:06;16.50;80.60
59505;DHT22;45321;53.200;5.814;2023-08-30T07:21:32;16.50;80.00
59505;DHT22;45321;53.200;5.814;2023-08-30T07:24:00;16.50;80.10
59505;DHT22;45321;53.200;5.814;2023-08-30T07:26:25;16.50;80.30
59505;DHT22;45321;53.200;5.814;2023-08-30T07:28:51;16.50;80.60
59505;DHT22;45321;53.200;5.814;2023-08-30T07:31:17;16.50;80.20
59505;DHT22;45321;53.200;5.814;2023-08-30T07:33:44;16.50;79.70
59505;DHT22;45321;53.200;5.814;2023-08-30T07:36:10;16.60;79.80
59505;DHT22;45321;53.200;5.814;2023-08-30T07:38:37;16.50;79.60
59505;DHT22;45321;53.200;5.814;2023-08-30T07:41:03;16.60;79.90
59505;DHT22;45321;53.200;5.814;2023-08-30T07:43:29;16.60;79.70
59505;DHT22;45321;53.200;5.814;2023-08-30T07:45:54;16.70;79.90
59505;DHT22;45321;53.200;5.814;2023-08-30T07:48:22;16.70;79.80
59505;DHT22;45321;53.200;5.814;2023-08-30T07:50:47;16.80;79.60
59505;DHT22;45321;53.200;5.814;2023-08-30T07:53:13;16.80;79.40
59505;DHT22;45321;53.200;5.814;2023-08-30T07:55:39;16.80;79.10
59505;DHT22;45321;53.200;5.814;2023-08-30T07:58:05;16.80;79.20
59505;DHT22;45321;53.200;5.814;2023-08-30T08:00:31;16.90;79.40
59505;DHT22;45321;53.200;5.814;2023-08-30T08:02:56;16.90;79.50
59505;DHT22;45321;53.200;5.814;2023-08-30T08:05:22;16.90;79.50
59505;DHT22;45321;53.200;5.814;2023-08-30T08:07:52;16.90;79.60
59505;DHT22;45321;53.200;5.814;2023-08-30T08:10:18;17.00;79.60
59505;DHT22;45321;53.200;5.814;2023-08-30T08:12:44;17.00;79.30
59505;DHT22;45321;53.200;5.814;2023-08-30T08:15:10;17.10;79.20
59505;DHT22;45321;53.200;5.814;2023-08-30T08:17:35;17.10;79.00
59505;DHT22;45321;53.200;5.814;2023-08-30T08:20:02;17.10;78.90
59505;DHT22;45321;53.200;5.814;2023-08-30T08:22:28;17.20;79.00
59505;DHT22;45321;53.200;5.814;2023-08-30T08:24:54;17.20;79.00
59505;DHT22;45321;53.200;5.814;2023-08-30T08:27:21;17.20;78.80
59505;DHT22;45321;53.200;5.814;2023-08-30T08:29:47;17.20;78.80
59505;DHT22;45321;53.200;5.814;2023-08-30T08:32:13;17.20;78.60
59505;DHT22;45321;53.200;5.814;2023-08-30T08:34:39;17.10;78.50
59505;DHT22;45321;53.200;5.814;2023-08-30T08:37:04;17.00;78.40
59505;DHT22;45321;53.200;5.814;2023-08-30T08:39:31;17.00;78.40
59505;DHT22;45321;53.200;5.814;2023-08-30T08:41:59;17.00;78.70
59505;DHT22;45321;53.200;5.814;2023-08-30T08:44:26;16.90;78.60
59505;DHT22;45321;53.200;5.814;2023-08-30T08:46:56;16.90;78.60
59505;DHT22;45321;53.200;5.814;2023-08-30T08:49:23;16.90;79.00
59505;DHT22;45321;53.200;5.814;2023-08-30T08:51:54;16.80;79.00
59505;DHT22;45321;53.200;5.814;2023-08-30T08:54:20;16.90;78.90
59505;DHT22;45321;53.200;5.814;2023-08-30T08:56:46;16.90;78.80
59505;DHT22;45321;53.200;5.814;2023-08-30T08:59:12;16.80;78.60
59505;DHT22;45321;53.200;5.814;2023-08-30T09:01:39;16.90;79.00
59505;DHT22;45321;53.200;5.814;2023-08-30T09:04:09;16.80;79.50
59505;DHT22;45321;53.200;5.814;2023-08-30T09:06:35;16.80;79.30
59505;DHT22;45321;53.200;5.814;2023-08-30T09:09:03;16.90;79.10
59505;DHT22;45321;53.200;5.814;2023-08-30T09:11:29;16.90;79.20
59505;DHT22;45321;53.200;5.814;2023-08-30T09:13:55;16.90;79.30
59505;DHT22;45321;53.200;5.814;2023-08-30T09:16:21;17.00;78.90
59505;DHT22;45321;53.200;5.814;2023-08-30T09:19:00;17.00;78.90
59505;DHT22;45321;53.200;5.814;2023-08-30T09:21:27;17.00;78.90
59505;DHT22;45321;53.200;5.814;2023-08-30T09:23:59;16.90;79.00
59505;DHT22;45321;53.200;5.814;2023-08-30T09:26:26;17.00;79.20
59505;DHT22;45321;53.200;5.814;2023-08-30T09:28:54;17.00;79.00
59505;DHT22;45321;53.200;5.814;2023-08-30T09:31:23;17.00;79.50
59505;DHT22;45321;53.200;5.814;2023-08-30T09:33:49;17.00;79.40
59505;DHT22;45321;53.200;5.814;2023-08-30T09:36:18;16.90;79.90
59505;DHT22;45321;53.200;5.814;2023-08-30T09:38:48;17.00;79.30
59505;DHT22;45321;53.200;5.814;2023-08-30T09:41:16;16.90;79.60
59505;DHT22;45321;53.200;5.814;2023-08-30T09:43:42;16.90;79.90
59505;DHT22;45321;53.200;5.814;2023-08-30T09:46:09;16.80;80.30
59505;DHT22;45321;53.200;5.814;2023-08-30T09:48:34;16.80;80.50
59505;DHT22;45321;53.200;5.814;2023-08-30T09:51:03;16.80;81.00
59505;DHT22;45321;53.200;5.814;2023-08-30T09:53:37;16.80;81.20
59505;DHT22;45321;53.200;5.814;2023-08-30T09:56:03;16.80;81.40
59505;DHT22;45321;53.200;5.814;2023-08-30T09:58:30;16.80;82.20
59505;DHT22;45321;53.200;5.814;2023-08-30T10:00:56;16.80;82.60
59505;DHT22;45321;53.200;5.814;2023-08-30T10:03:24;16.70;82.80
59505;DHT22;45321;53.200;5.814;2023-08-30T10:05:50;16.70;82.90
59505;DHT22;45321;53.200;5.814;2023-08-30T10:08:16;16.70;83.00
59505;DHT22;45321;53.200;5.814;2023-08-30T10:10:43;16.80;82.60
59505;DHT22;45321;53.200;5.814;2023-08-30T10:13:12;16.80;82.00
59505;DHT22;45321;53.200;5.814;2023-08-30T10:15:43;16.70;82.30
59505;DHT22;45321;53.200;5.814;2023-08-30T10:18:15;16.70;82.70
59505;DHT22;45321;53.200;5.814;2023-08-30T10:20:44;16.70;83.10
59505;DHT22;45321;53.200;5.814;2023-08-30T10:23:11;16.70;82.40
59505;DHT22;45321;53.200;5.814;2023-08-30T10:25:37;16.70;83.30
59505;DHT22;45321;53.200;5.814;2023-08-30T10:28:04;16.70;82.80
59505;DHT22;45321;53.200;5.814;2023-08-30T10:30:30;16.60;82.80
59505;DHT22;45321;53.200;5.814;2023-08-30T10:32:56;16.60;83.10
59505;DHT22;45321;53.200;5.814;2023-08-30T10:35:22;16.60;83.60
59505;DHT22;45321;53.200;5.814;2023-08-30T10:37:55;16.60;83.90
59505;DHT22;45321;53.200;5.814;2023-08-30T10:40:21;16.60;83.80
59505;DHT22;45321;53.200;5.814;2023-08-30T10:42:59;16.60;83.90
59505;DHT22;45321;53.200;5.814;2023-08-30T10:45:28;16.60;83.70
59505;DHT22;45321;53.200;5.814;2023-08-30T10:47:59;16.60;83.90
59505;DHT22;45321;53.200;5.814;2023-08-30T10:50:30;16.70;84.00
59505;DHT22;45321;53.200;5.814;2023-08-30T10:52:59;16.70;84.20
59505;DHT22;45321;53.200;5.814;2023-08-30T10:55:26;16.70;84.10
59505;DHT22;45321;53.200;5.814;2023-08-30T10:58:02;16.70;83.70
59505;DHT22;45321;53.200;5.814;2023-08-30T11:00:30;16.70;83.90
59505;DHT22;45321;53.200;5.814;2023-08-30T11:02:57;16.70;84.20
59505;DHT22;45321;53.200;5.814;2023-08-30T11:05:24;16.60;84.20
59505;DHT22;45321;53.200;5.814;2023-08-30T11:07:51;16.50;84.60
59505;DHT22;45321;53.200;5.814;2023-08-30T11:10:17;16.50;84.30
59505;DHT22;45321;53.200;5.814;2023-08-30T11:12:44;16.50;84.80
59505;DHT22;45321;53.200;5.814;2023-08-30T11:15:12;16.50;84.90
59505;DHT22;45321;53.200;5.814;2023-08-30T11:17:44;16.50;84.70
59505;DHT22;45321;53.200;5.814;2023-08-30T11:20:15;16.40;84.70
59505;DHT22;45321;53.200;5.814;2023-08-30T11:22:46;16.50;84.80
59505;DHT22;45321;53.200;5.814;2023-08-30T11:25:13;16.50;84.50
59505;DHT22;45321;53.200;5.814;2023-08-30T11:27:40;16.50;84.30
59505;DHT22;45321;53.200;5.814;2023-08-30T11:30:07;16.50;84.80
59505;DHT22;45321;53.200;5.814;2023-08-30T11:32:40;16.50;84.60
59505;DHT22;45321;53.200;5.814;2023-08-30T11:35:08;16.50;84.60
59505;DHT22;45321;53.200;5.814;2023-08-30T11:37:34;16.50;84.50
59505;DHT22;45321;53.200;5.814;2023-08-30T11:40:01;16.50;84.90
59505;DHT22;45321;53.200;5.814;2023-08-30T11:42:28;16.40;85.00
59505;DHT22;45321;53.200;5.814;2023-08-30T11:44:55;16.50;85.90
59505;DHT22;45321;53.200;5.814;2023-08-30T11:47:25;16.50;86.60
59505;DHT22;45321;53.200;5.814;2023-08-30T11:49:57;16.50;87.10
59505;DHT22;45321;53.200;5.814;2023-08-30T11:52:24;16.40;86.80
59505;DHT22;45321;53.200;5.814;2023-08-30T11:54:51;16.40;86.70
59505;DHT22;45321;53.200;5.814;2023-08-30T11:57:16;16.30;87.10
59505;DHT22;45321;53.200;5.814;2023-08-30T11:59:43;16.30;87.70
59505;DHT22;45321;53.200;5.814;2023-08-30T12:02:09;16.30;87.50
59505;DHT22;45321;53.200;5.814;2023-08-30T12:04:41;16.30;87.90
59505;DHT22;45321;53.200;5.814;2023-08-30T12:07:08;16.40;88.40
59505;DHT22;45321;53.200;5.814;2023-08-30T12:09:34;16.40;87.90
59505;DHT22;45321;53.200;5.814;2023-08-30T12:12:12;16.50;87.50
59505;DHT22;45321;53.200;5.814;2023-08-30T12:14:38;16.50;88.00
59505;DHT22;45321;53.200;5.814;2023-08-30T12:17:04;16.50;87.70
59505;DHT22;45321;53.200;5.814;2023-08-30T12:19:31;16.50;87.10
59505;DHT22;45321;53.200;5.814;2023-08-30T12:22:04;16.50;86.90
59505;DHT22;45321;53.200;5.814;2023-08-30T12:24:43;16.50;87.60
59505;DHT22;45321;53.200;5.814;2023-08-30T12:27:10;16.50;88.30
59505;DHT22;45321;53.200;5.814;2023-08-30T12:29:36;16.60;87.80
59505;DHT22;45321;53.200;5.814;2023-08-30T12:32:01;16.60;87.90
59505;DHT22;45321;53.200;5.814;2023-08-30T12:34:28;16.50;87.90
59505;DHT22;45321;53.200;5.814;2023-08-30T12:36:56;16.50;88.20
59505;DHT22;45321;53.200;5.814;2023-08-30T12:39:22;16.50;88.10
59505;DHT22;45321;53.200;5.814;2023-08-30T12:41:48;16.60;88.30
59505;DHT22;45321;53.200;5.814;2023-08-30T12:44:13;16.50;88.20
59505;DHT22;45321;53.200;5.814;2023-08-30T12:46:39;16.60;88.40
59505;DHT22;45321;53.200;5.814;2023-08-30T12:49:05;16.60;88.60
59505;DHT22;45321;53.200;5.814;2023-08-30T12:51:30;16.60;88.50
59505;DHT22;45321;53.200;5.814;2023-08-30T12:53:56;16.70;88.50
59505;DHT22;45321;53.200;5.814;2023-08-30T12:56:22;16.70;88.60
59505;DHT22;45321;53.200;5.814;2023-08-30T12:58:48;16.70;88.80
59505;DHT22;45321;53.200;5.814;2023-08-30T13:01:14;16.70;88.50
59505;DHT22;45321;53.200;5.814;2023-08-30T13:03:42;16.70;88.60
59505;DHT22;45321;53.200;5.814;2023-08-30T13:06:09;16.80;88.50
59505;DHT22;45321;53.200;5.814;2023-08-30T13:08:35;16.80;88.50
59505;DHT22;45321;53.200;5.814;2023-08-30T13:11:01;16.90;88.30
59505;DHT22;45321;53.200;5.814;2023-08-30T13:13:27;17.00;88.40
59505;DHT22;45321;53.200;5.814;2023-08-30T13:15:56;17.10;88.60
59505;DHT22;45321;53.200;5.814;2023-08-30T13:18:22;17.20;88.50
59505;DHT22;45321;53.200;5.814;2023-08-30T13:20:47;17.30;87.80
59505;DHT22;45321;53.200;5.814;2023-08-30T13:23:13;17.30;87.60
59505;DHT22;45321;53.200;5.814;2023-08-30T13:25:40;17.30;87.10
59505;DHT22;45321;53.200;5.814;2023-08-30T13:28:05;17.40;87.70
59505;DHT22;45321;53.200;5.814;2023-08-30T13:30:31;17.40;88.10
59505;DHT22;45321;53.200;5.814;2023-08-30T13:32:59;17.40;88.30
59505;DHT22;45321;53.200;5.814;2023-08-30T13:35:26;17.40;87.70
59505;DHT22;45321;53.200;5.814;2023-08-30T13:37:51;17.30;87.80
59505;DHT22;45321;53.200;5.814;2023-08-30T13:40:18;17.30;87.70
59505;DHT22;45321;53.200;5.814;2023-08-30T13:42:44;17.30;87.60
59505;DHT22;45321;53.200;5.814;2023-08-30T13:45:09;17.40;87.60
59505;DHT22;45321;53.200;5.814;2023-08-30T13:47:35;17.50;87.80
59505;DHT22;45321;53.200;5.814;2023-08-30T13:50:01;17.70;88.50
59505;DHT22;45321;53.200;5.814;2023-08-30T13:52:29;17.90;88.80
59505;DHT22;45321;53.200;5.814;2023-08-30T13:54:56;18.00;88.30
59505;DHT22;45321;53.200;5.814;2023-08-30T13:57:22;18.20;88.50
59505;DHT22;45321;53.200;5.814;2023-08-30T13:59:48;18.20;87.90
59505;DHT22;45321;53.200;5.814;2023-08-30T14:02:14;18.20;87.30
59505;DHT22;45321;53.200;5.814;2023-08-30T14:04:39;18.20;87.20
59505;DHT22;45321;53.200;5.814;2023-08-30T14:07:05;18.20;87.10
59505;DHT22;45321;53.200;5.814;2023-08-30T14:09:31;18.30;87.50
59505;DHT22;45321;53.200;5.814;2023-08-30T14:11:57;18.40;87.10
59505;DHT22;45321;53.200;5.814;2023-08-30T14:14:23;18.30;86.00
59505;DHT22;45321;53.200;5.814;2023-08-30T14:16:48;18.20;85.90
59505;DHT22;45321;53.200;5.814;2023-08-30T14:19:15;18.20;85.80
59505;DHT22;45321;53.200;5.814;2023-08-30T14:21:41;18.20;85.60
59505;DHT22;45321;53.200;5.814;2023-08-30T14:24:07;18.10;85.10
59505;DHT22;45321;53.200;5.814;2023-08-30T14:26:32;18.00;85.20
59505;DHT22;45321;53.200;5.814;2023-08-30T14:28:58;18.00;85.10
59505;DHT22;45321;53.200;5.814;2023-08-30T14:31:24;17.90;85.80
59505;DHT22;45321;53.200;5.814;2023-08-30T14:33:54;17.90;86.50
59505;DHT22;45321;53.200;5.814;2023-08-30T14:36:21;18.10;87.70
59505;DHT22;45321;53.200;5.814;2023-08-30T14:38:47;18.20;87.30
59505;DHT22;45321;53.200;5.814;2023-08-30T14:41:13;18.30;86.80
59505;DHT22;45321;53.200;5.814;2023-08-30T14:43:41;18.20;86.30
59505;DHT22;45321;53.200;5.814;2023-08-30T14:46:07;18.20;85.80
59505;DHT22;45321;53.200;5.814;2023-08-30T14:48:33;18.20;85.90
59505;DHT22;45321;53.200;5.814;2023-08-30T14:51:00;18.40;86.60
59505;DHT22;45321;53.200;5.814;2023-08-30T14:53:26;18.50;85.90
59505;DHT22;45321;53.200;5.814;2023-08-30T14:55:52;18.60;85.50
59505;DHT22;45321;53.200;5.814;2023-08-30T14:58:17;18.50;84.20
59505;DHT22;45321;53.200;5.814;2023-08-30T15:00:46;18.50;84.90
59505;DHT22;45321;53.200;5.814;2023-08-30T15:03:12;18.90;84.50
59505;DHT22;45321;53.200;5.814;2023-08-30T15:05:38;19.00;82.50
59505;DHT22;45321;53.200;5.814;2023-08-30T15:08:04;19.20;81.90
59505;DHT22;45321;53.200;5.814;2023-08-30T15:10:30;19.70;81.60
59505;DHT22;45321;53.200;5.814;2023-08-30T15:12:56;20.50;80.70
59505;DHT22;45321;53.200;5.814;2023-08-30T15:15:21;21.40;80.10
59505;DHT22;45321;53.200;5.814;2023-08-30T15:17:47;22.00;76.00
59505;DHT22;45321;53.200;5.814;2023-08-30T15:20:16;21.90;74.10
59505;DHT22;45321;53.200;5.814;2023-08-30T15:22:41;22.20;74.80
59505;DHT22;45321;53.200;5.814;2023-08-30T15:25:07;22.20;73.90
59505;DHT22;45321;53.200;5.814;2023-08-30T15:27:34;22.30;72.70
59505;DHT22;45321;53.200;5.814;2023-08-30T15:30:00;22.20;72.10
59505;DHT22;45321;53.200;5.814;2023-08-30T15:32:26;21.80;71.80